Flight Track Log - Related Links

Times and Time Zones

All times are in EDT time to prevent confusion due to time zone crossing. See the UAL4093 flight status page for this flight to view local times or setup timezone preferences in your user account.

Time Position Orientation Groundspeed Altitude Reporting Facility
EDT Latitude Longitude Course Direction KTS MPH feet Rate Location/Type
Tue 06:13:26 PM 39.0333 -84.6667 North 154 177 1,400  Level Cincinnati TRACON
Tue 06:14:32 PM 39.0167 -84.6000 108° East 247 284 3,200 1,785 Climbing Cincinnati TRACON
Tue 06:15:27 PM 39.0333 -84.5167 76° East 281 323 5,000 1,983 Climbing Cincinnati TRACON
Tue 06:16:00 PM 39.0327 -84.4169 15° North  Level FlightAware Approximate
Tue 06:16:27 PM 39.0667 -84.4167 67° East 313 360 7,000  Level Cincinnati TRACON
Tue 06:17:00 PM 39.1386 -84.4000 North  Level FlightAware Approximate
Tue 06:18:00 PM 39.2461 -84.4000 North  Level FlightAware Approximate
Tue 06:18:07 PM 39.1958 -84.4100 North 303 349 10,500  Level Indianapolis Center
Tue 06:19:09 PM 39.2900 -84.4083 North 318 366 11,200 1,065 Climbing Indianapolis Center
Tue 06:20:11 PM 39.3956 -84.4075 360° North 347 399 12,700 1,742 Climbing Indianapolis Center
Tue 06:21:13 PM 39.5006 -84.4089 359° North 367 422 14,800 1,742 Climbing Indianapolis Center
Tue 06:22:15 PM 39.5958 -84.3619 21° North 379 436 16,300 1,355 Climbing Indianapolis Center
Tue 06:23:17 PM 39.6964 -84.2600 38° Northeast 391 450 17,600 1,113 Climbing Indianapolis Center
Tue 06:24:19 PM 39.7861 -84.1675 38° Northeast 403 464 18,600 1,016 Climbing Indianapolis Center
Tue 06:25:21 PM 39.8739 -84.0686 41° Northeast 412 474 19,700 1,065 Climbing Indianapolis Center
Tue 06:26:23 PM 39.9594 -83.9600 44° Northeast 422 486 20,800 1,104 Climbing Indianapolis Center
Tue 06:27:26 PM 40.0475 -83.8514 43° Northeast 427 491 22,000 1,152 Climbing Indianapolis Center
Tue 06:28:28 PM 40.1339 -83.7417 44° Northeast 426 490 23,200 1,161 Climbing Indianapolis Center
Tue 06:29:30 PM 40.2217 -83.6314 44° Northeast 430 495 24,400 1,258 Climbing Indianapolis Center
Tue 06:30:32 PM 40.3089 -83.5225 44° Northeast 428 493 25,800 1,306 Climbing Indianapolis Center
Tue 06:31:34 PM 40.3936 -83.4144 44° Northeast 422 486 27,100 1,258 Climbing Indianapolis Center
Tue 06:32:36 PM 40.4914 -83.2900 44° Northeast 417 480 28,400 1,161 Climbing Indianapolis Center
Tue 06:33:38 PM 40.5750 -83.1828 44° Northeast 416 479 29,500 1,065 Climbing Indianapolis Center
Tue 06:34:40 PM 40.6547 -83.0806 44° Northeast 422 486 30,600 1,253 Climbing Indianapolis Center
Tue 06:35:09 PM 40.7019 -83.0181 45° Northeast 416 479 31,400 1,416 Climbing Cleveland Center
Tue 06:36:09 PM 40.7508 -82.8744 66° East 416 479 32,700 1,400 Climbing Cleveland Center
Tue 06:37:09 PM 40.7892 -82.7278 71° East 411 473 34,200 1,150 Climbing Cleveland Center
Tue 06:38:09 PM 40.8250 -82.5833 72° East 416 479 35,000 400 Climbing Cleveland Center
Tue 06:39:09 PM 40.8672 -82.4311 70° East 418 481 35,000  Level Cleveland Center
Tue 06:40:09 PM 40.9094 -82.2700 71° East 442 509 35,000  Level Cleveland Center
Tue 06:41:09 PM 40.9514 -82.1061 71° East 462 532 35,000  Level Cleveland Center
Tue 06:42:09 PM 40.9928 -81.9475 71° East 458 527 35,000  Level Cleveland Center
Tue 06:43:09 PM 41.0344 -81.7806 72° East 463 533 35,000  Level Cleveland Center
Tue 06:44:09 PM 41.0756 -81.6161 72° East 463 533 35,000  Level Cleveland Center
Tue 06:45:09 PM 41.1186 -81.4486 71° East 469 540 35,000  Level Cleveland Center
Tue 06:46:09 PM 41.1594 -81.2836 72° East 464 534 35,000  Level Cleveland Center
Tue 06:47:09 PM 41.2000 -81.1239 71° East 459 528 35,000  Level Cleveland Center
Tue 06:48:09 PM 41.2422 -80.9531 72° East 469 540 35,000  Level Cleveland Center
Tue 06:49:09 PM 41.2844 -80.7847 71° East 469 540 35,000  Level Cleveland Center
Tue 06:50:09 PM 41.3242 -80.6192 72° East 469 540 35,000  Level Cleveland Center
Tue 06:51:09 PM 41.3575 -80.4475 75° East 474 545 35,000  Level Cleveland Center
Tue 06:52:09 PM 41.3614 -80.2844 88° East 480 552 35,000  Level Cleveland Center
Tue 06:53:09 PM 41.3628 -80.1072 89° East 480 552 35,000  Level Cleveland Center
Tue 06:54:09 PM 41.3639 -79.9275 89° East 475 547 35,000  Level Cleveland Center
Tue 06:55:09 PM 41.3650 -79.7503 89° East 475 547 35,000  Level Cleveland Center
Tue 06:56:09 PM 41.3656 -79.5650 90° East 481 554 35,000  Level Cleveland Center
Tue 06:57:09 PM 41.3658 -79.3686 90° East 481 554 35,000  Level Cleveland Center
Tue 06:58:09 PM 41.3658 -79.1858 90° East 476 548 35,000  Level Cleveland Center
Tue 06:59:09 PM 41.3656 -79.0061 90° East 481 554 35,000  Level Cleveland Center
Tue 07:00:09 PM 41.3672 -78.8317 89° East 475 547 35,000  Level Cleveland Center
Tue 07:01:09 PM 41.3644 -78.6603 91° East 475 547 35,000  Level Cleveland Center
Tue 07:02:09 PM 41.3633 -78.4806 90° East 475 547 35,000  Level Cleveland Center
Tue 07:03:09 PM 41.3619 -78.3036 91° East 475 547 35,000 -229 Level Cleveland Center
Tue 07:03:54 PM 41.3592 -78.1764 92° East 477 549 34,600 -1,398 Descending New York Center
Tue 07:04:52 PM 41.3578 -77.9964 91° East 491 565 32,600 -1,780 Descending New York Center
Tue 07:05:52 PM 41.3600 -77.8197 89° East 491 565 31,100 -793 Descending New York Center
Tue 07:06:53 PM 41.4011 -77.6525 72° East 477 549 31,000 -49 Descending New York Center
Tue 07:07:54 PM 41.3947 -77.4747 93° East 477 549 31,000  Level New York Center
Tue 07:08:54 PM 41.3628 -77.3003 104° East 477 549 31,000  Level New York Center
Tue 07:09:52 PM 41.3306 -77.1231 104° East 489 563 31,000 -150 Level New York Center
Tue 07:10:54 PM 41.3003 -76.9461 103° East 489 563 30,700 -1,100 Descending New York Center
Tue 07:11:52 PM 41.2681 -76.7664 103° East 494 568 28,800 -2,186 Descending New York Center
Tue 07:12:52 PM 41.2372 -76.5900 103° East 499 574 26,400 -2,380 Descending New York Center
Tue 07:13:53 PM 41.2072 -76.4328 104° East 494 568 24,000 -2,479 Descending New York Center
Tue 07:14:53 PM 41.1797 -76.2622 102° East 481 554 21,400 -2,678 Descending New York Center
Tue 07:15:54 PM 41.1464 -76.0806 104° East 468 539 18,600 -2,542 Descending New York Center
Tue 07:16:51 PM 41.1094 -75.9261 108° East 455 524 16,400 -2,085 Descending New York Center
Tue 07:17:52 PM 41.0714 -75.7939 111° Southeast 433 498 14,500 -1,574 Descending New York Center
Tue 07:18:53 PM 41.0317 -75.6478 110° East 422 486 13,200 -744 Descending New York Center
Tue 07:19:53 PM 40.9900 -75.4964 110° East 405 466 13,000 -151 Descending New York Center
Tue 07:20:52 PM 40.9589 -75.3900 111° Southeast 367 422 12,900 -756 Descending New York Center
Tue 07:21:52 PM 40.9258 -75.2722 110° East 340 391 11,500 -1,537 Descending New York Center
Tue 07:22:53 PM 40.8908 -75.1464 110° East 334 384 9,800 -1,587 Descending New York Center
Tue 07:23:53 PM 40.8594 -75.0403 111° Southeast 325 374 8,300 -1,388 Descending New York Center
Tue 07:24:54 PM 40.8317 -74.9397 110° East 299 344 7,000 -992 Descending New York Center
Tue 07:25:54 PM 40.8078 -74.8533 110° East 287 330 6,300 -504 Descending New York Center
Tue 07:26:53 PM 40.7800 -74.7475 109° East 282 325 6,000 -150 Descending New York Center
Tue 07:27:54 PM 40.7581 -74.6586 108° East 276 318 6,000  Level New York Center
Tue 07:28:40 PM 40.8000 -74.5833 54° Northeast 294 338 6,000 -283 Level New York TRACON
Tue 07:29:40 PM 40.8667 -74.5667 11° North 238 274 5,500 -500 Descending New York TRACON
Tue 07:30:40 PM 40.9333 -74.5500 11° North 233 268 5,000 -227 Descending New York TRACON
Tue 07:31:52 PM 40.9775 -74.5033 39° Northeast 224 258 5,000  Level New York Center
Tue 07:32:53 PM 40.9972 -74.4083 75° East 230 265 5,000  Level New York Center
Tue 07:33:40 PM 41.0167 -74.3333 71° East 251 289 5,000 -280 Level New York TRACON
Tue 07:34:40 PM 41.0167 -74.2500 90° East 245 282 4,500 -500 Descending New York TRACON
Tue 07:35:40 PM 40.9833 -74.1833 124° Southeast 231 266 4,000 -381 Descending New York TRACON
Tue 07:36:46 PM 40.9333 -74.1167 135° Southeast 196 226 3,700 -500 Descending New York TRACON
Tue 07:37:40 PM 40.9000 -74.0833 143° Southeast 180 207 3,000 -579 Descending New York TRACON
Tue 07:38:40 PM 40.8500 -74.0833 180° South 177 204 2,600 -350 Descending New York TRACON
Tue 07:39:40 PM 40.8000 -74.1000 194° South 175 201 2,300 -550 Descending New York TRACON
Tue 07:40:40 PM 40.7667 -74.1167 201° Southwest 151 174 1,500 -800 Descending New York TRACON
Tue 07:41:40 PM 40.7333 -74.1500 217° Southwest 148 170 700 -800 Descending New York TRACON

Login

Don't have an account? Register now (free) for customized features, flight alerts, and more!